createdAt,value
2022-10-24T00:18:30.430Z,20.7
2022-10-24T00:48:30.461Z,20.6
2022-10-24T01:18:30.433Z,20.6
2022-10-24T01:48:30.430Z,20.6
2022-10-24T02:18:30.435Z,20.6
2022-10-24T02:48:30.477Z,20.6
2022-10-24T03:18:30.419Z,20.6
2022-10-24T03:48:30.453Z,20.6
2022-10-24T04:18:30.421Z,20.6
2022-10-24T04:48:30.432Z,20.6
2022-10-24T05:18:30.431Z,20.6
2022-10-24T05:48:30.392Z,20.7
2022-10-24T06:18:30.391Z,20.7
2022-10-24T06:48:30.578Z,20.7
2022-10-24T07:18:30.433Z,20.7
2022-10-24T07:48:30.433Z,20.8
2022-10-24T08:18:30.426Z,20.8
2022-10-24T08:48:30.408Z,20.8
2022-10-24T09:18:30.430Z,20.8
2022-10-24T09:48:30.424Z,20.8
2022-10-24T10:18:30.421Z,20.8
2022-10-24T10:48:30.421Z,20.8
2022-10-24T11:18:30.403Z,20.8
2022-10-24T11:48:30.394Z,20.8
2022-10-24T12:18:30.423Z,20.8
2022-10-24T12:48:30.375Z,20.9
2022-10-24T13:18:30.425Z,20.9
2022-10-24T13:48:30.385Z,21.0
2022-10-24T14:18:30.381Z,21.1
2022-10-24T14:48:30.399Z,21.2
2022-10-24T15:18:30.387Z,21.3
2022-10-24T15:48:30.392Z,21.4
2022-10-24T16:18:30.396Z,21.5
2022-10-24T16:48:30.368Z,21.5
2022-10-24T17:18:30.399Z,21.5
2022-10-24T17:48:30.404Z,21.5
2022-10-24T18:18:30.400Z,21.5
2022-10-24T18:48:30.402Z,21.5
2022-10-24T19:18:30.365Z,21.4
2022-10-24T19:48:30.377Z,21.3
2022-10-24T20:18:30.394Z,21.3
2022-10-24T20:48:30.362Z,21.2
2022-10-24T21:18:30.386Z,21.2
2022-10-24T21:48:30.401Z,21.1
2022-10-24T22:18:30.386Z,21.1
2022-10-24T22:48:30.463Z,21.1
2022-10-24T23:18:30.372Z,21.1
2022-10-24T23:48:30.354Z,21.0
